This is the latest recevied weather packets stored in our database for station/object IW2LSY-11. If no packets are shown the sender has not sent any weather packets the latest 10 day(s).
| Time | Temp. | Humidity | Pressure | Rain* | Wind** | Luminosity | Snow |
|---|---|---|---|---|---|---|---|
| 1777267209 | 13.33° C | 65% | 1019.6 hPa | - | - | 502 W/m² | - |
| 1777266609 | 11.67° C | 72% | 1019.5 hPa | - | - | 504 W/m² | - |
| 1777266010 | 11.67° C | 74% | 1019.5 hPa | - | - | 504 W/m² | - |
| 1777265409 | 11.67° C | 74% | 1019.5 hPa | - | - | 503 W/m² | - |
| 1777264809 | 11.11° C | 78% | 1019.4 hPa | - | - | 505 W/m² | - |
| 1777264209 | 10.56° C | 78% | 1019.4 hPa | - | - | 505 W/m² | - |
| 1777263609 | 11.11° C | 77% | 1019.2 hPa | - | - | 506 W/m² | - |
| 1777263008 | 11.11° C | 76% | 1019.2 hPa | - | - | 506 W/m² | - |
| 1777262408 | 11.11° C | 76% | 1019.2 hPa | - | - | 507 W/m² | - |
| 1777261808 | 11.11° C | 75% | 1019.2 hPa | - | - | 508 W/m² | - |
| 1777261209 | 11.11° C | 75% | 1019.1 hPa | - | - | 508 W/m² | - |
| 1777260609 | 11.11° C | 75% | 1019.1 hPa | - | - | 508 W/m² | - |
| 1777260009 | 11.67° C | 74% | 1019.1 hPa | - | - | 509 W/m² | - |
| 1777259409 | 11.67° C | 74% | 1019.1 hPa | - | - | 510 W/m² | - |
| 1777258810 | 12.22° C | 72% | 1019.1 hPa | - | - | 510 W/m² | - |
| 1777258210 | 11.67° C | 75% | 1019.1 hPa | - | - | 511 W/m² | - |
| 1777257610 | 12.22° C | 71% | 1019 hPa | - | - | 511 W/m² | - |
| 1777257010 | 12.22° C | 69% | 1018.9 hPa | - | - | 512 W/m² | - |
| 1777256411 | 12.78° C | 68% | 1018.9 hPa | - | - | 513 W/m² | - |
| 1777255811 | 12.22° C | 69% | 1018.9 hPa | - | - | 513 W/m² | - |
| 1777255212 | 12.22° C | 70% | 1018.9 hPa | - | - | 514 W/m² | - |
| 1777254612 | 12.78° C | 67% | 1018.8 hPa | - | - | 513 W/m² | - |
| 1777254012 | 12.78° C | 67% | 1018.8 hPa | - | - | 514 W/m² | - |
| 1777253412 | 13.33° C | 66% | 1018.8 hPa | - | - | 515 W/m² | - |
| 1777252812 | 12.78° C | 66% | 1018.8 hPa | - | - | 516 W/m² | - |
* Rain since midnight (hover to see other rain measurements)
** Current wind speed in m/s (hover to see current wind gust speed)